createdAt,value
2022-09-04T00:00:45.023Z,98554.00
2022-09-04T00:03:20.237Z,98552.00
2022-09-04T00:05:51.960Z,98549.00
2022-09-04T00:08:34.762Z,98560.00
2022-09-04T00:11:05.889Z,98567.00
2022-09-04T00:13:35.321Z,98567.00
2022-09-04T00:16:07.637Z,98571.00
2022-09-04T00:18:36.822Z,98574.00
2022-09-04T00:21:08.818Z,98578.00
2022-09-04T00:23:40.409Z,98565.00
2022-09-04T00:26:10.942Z,98580.00
2022-09-04T00:28:41.325Z,98565.00
2022-09-04T00:31:16.103Z,98584.00
2022-09-04T00:33:48.570Z,98573.00
2022-09-04T00:36:18.396Z,98574.00
2022-09-04T00:38:48.916Z,98579.00
2022-09-04T00:41:22.976Z,98574.00
2022-09-04T00:44:09.028Z,98584.00
2022-09-04T00:46:52.061Z,98575.00
2022-09-04T00:49:43.190Z,98580.00
2022-09-04T00:52:18.544Z,98580.00
2022-09-04T00:54:51.850Z,98576.00
2022-09-04T00:58:05.327Z,98586.00
2022-09-04T01:00:33.707Z,98590.00
2022-09-04T01:03:24.969Z,98577.00
2022-09-04T01:06:10.104Z,98585.00
2022-09-04T01:08:48.287Z,98580.00
2022-09-04T01:11:18.944Z,98584.00
2022-09-04T01:13:51.842Z,98588.00
2022-09-04T01:16:22.824Z,98594.00
2022-09-04T01:18:54.202Z,98580.00
2022-09-04T01:21:31.476Z,98589.00
2022-09-04T01:24:23.884Z,98586.00
2022-09-04T01:26:55.785Z,98591.00
2022-09-04T01:29:28.462Z,98587.00
2022-09-04T01:31:58.477Z,98593.00
2022-09-04T01:34:36.494Z,98596.00
2022-09-04T01:37:12.222Z,98605.00
2022-09-04T01:39:40.451Z,98596.00
2022-09-04T01:42:12.326Z,98599.00
2022-09-04T01:44:40.730Z,98604.00
2022-09-04T01:47:12.494Z,98609.00
2022-09-04T01:49:42.339Z,98610.00
2022-09-04T01:52:18.307Z,98605.00
2022-09-04T01:54:53.836Z,98610.00
2022-09-04T01:57:32.031Z,98617.00
2022-09-04T02:00:04.294Z,98618.00
2022-09-04T02:02:35.727Z,98617.00
2022-09-04T02:05:08.599Z,98617.00
2022-09-04T02:07:39.738Z,98626.00
2022-09-04T02:10:11.119Z,98629.00
2022-09-04T02:12:51.133Z,98629.00
2022-09-04T02:15:26.180Z,98624.00
2022-09-04T02:17:57.748Z,98625.00
2022-09-04T02:20:26.915Z,98617.00
2022-09-04T02:23:05.780Z,98620.00
2022-09-04T02:25:39.752Z,98624.00
2022-09-04T02:28:16.876Z,98636.00
2022-09-04T02:30:48.135Z,98634.00
2022-09-04T02:33:26.440Z,98635.00
2022-09-04T02:35:56.117Z,98622.00
2022-09-04T02:38:28.530Z,98631.00
2022-09-04T02:40:59.272Z,98636.00
2022-09-04T02:43:39.770Z,98628.00
2022-09-04T02:46:10.381Z,98616.00
2022-09-04T02:48:44.783Z,98627.00
2022-09-04T02:51:20.899Z,98630.00
2022-09-04T02:53:54.771Z,98625.00
2022-09-04T02:56:31.383Z,98625.00
2022-09-04T02:59:12.628Z,98629.00
2022-09-04T03:01:49.607Z,98630.00
2022-09-04T03:04:21.103Z,98638.00
2022-09-04T03:06:52.407Z,98639.00
2022-09-04T03:09:23.546Z,98636.00
2022-09-04T03:11:53.535Z,98630.00
2022-09-04T03:14:26.315Z,98630.00
2022-09-04T03:16:57.056Z,98618.00
2022-09-04T03:19:26.845Z,98628.00
2022-09-04T03:21:56.960Z,98638.00
2022-09-04T03:24:27.542Z,98638.00
2022-09-04T03:26:56.296Z,98637.00
2022-09-04T03:29:30.334Z,98648.00
2022-09-04T03:32:15.532Z,98649.00
2022-09-04T03:34:49.263Z,98653.00
2022-09-04T03:37:34.074Z,98642.00
2022-09-04T03:40:11.825Z,98646.00
2022-09-04T03:42:47.388Z,98651.00
2022-09-04T03:45:21.687Z,98653.00
2022-09-04T03:47:58.600Z,98662.00
2022-09-04T03:50:30.860Z,98656.00
2022-09-04T03:53:01.180Z,98661.00
2022-09-04T03:55:37.375Z,98671.00
2022-09-04T03:58:11.631Z,98668.00
2022-09-04T04:00:44.922Z,98678.00
2022-09-04T04:03:21.340Z,98682.00
2022-09-04T04:05:56.699Z,98674.00
2022-09-04T04:08:37.628Z,98672.00
2022-09-04T04:11:15.584Z,98684.00
2022-09-04T04:14:05.735Z,98669.00
2022-09-04T04:16:43.220Z,98668.00
2022-09-04T04:19:38.643Z,98676.00
2022-09-04T04:22:16.779Z,98678.00
2022-09-04T04:24:51.838Z,98682.00
2022-09-04T04:27:29.903Z,98685.00
2022-09-04T04:30:04.388Z,98681.00
2022-09-04T04:33:05.671Z,98688.00
2022-09-04T04:35:38.506Z,98690.00
2022-09-04T04:38:14.141Z,98691.00
2022-09-04T04:40:58.239Z,98695.00
2022-09-04T04:43:29.659Z,98702.00
2022-09-04T04:45:58.584Z,98697.00
2022-09-04T04:48:49.997Z,98700.00
2022-09-04T04:51:32.191Z,98699.00
2022-09-04T04:54:07.133Z,98697.00
2022-09-04T04:56:45.945Z,98705.00
2022-09-04T04:59:20.658Z,98714.00
2022-09-04T05:01:53.908Z,98720.00
2022-09-04T05:04:29.884Z,98719.00
2022-09-04T05:06:59.940Z,98715.00
2022-09-04T05:09:34.714Z,98719.00
2022-09-04T05:12:06.575Z,98729.00
2022-09-04T05:14:40.340Z,98725.00
2022-09-04T05:17:16.000Z,98725.00
2022-09-04T05:19:48.027Z,98731.00
2022-09-04T05:22:21.464Z,98735.00
2022-09-04T05:24:55.756Z,98739.00
2022-09-04T05:27:39.710Z,98737.00
2022-09-04T05:30:10.564Z,98743.00
2022-09-04T05:32:40.432Z,98747.00
2022-09-04T05:35:13.461Z,98753.00
2022-09-04T05:37:44.096Z,98759.00
2022-09-04T05:40:16.651Z,98770.00
2022-09-04T05:42:50.980Z,98768.00
2022-09-04T05:45:24.680Z,98768.00
2022-09-04T05:48:00.760Z,98775.00
2022-09-04T05:50:38.087Z,98761.00
2022-09-04T05:53:31.093Z,98770.00
2022-09-04T05:56:27.841Z,98781.00
2022-09-04T05:59:04.229Z,98781.00
2022-09-04T06:01:52.552Z,98780.00
2022-09-04T06:04:32.263Z,98781.00
2022-09-04T06:07:06.518Z,98785.00
2022-09-04T06:09:45.148Z,98781.00
2022-09-04T06:12:37.870Z,98782.00
2022-09-04T06:15:15.342Z,98799.00
2022-09-04T06:17:54.307Z,98799.00
2022-09-04T06:20:41.098Z,98787.00
2022-09-04T06:23:32.531Z,98805.00
2022-09-04T06:26:17.273Z,98806.00
2022-09-04T06:29:20.767Z,98813.00
2022-09-04T06:32:09.763Z,98810.00
2022-09-04T06:34:58.948Z,98814.00
2022-09-04T06:37:31.287Z,98819.00
2022-09-04T06:40:10.226Z,98813.00
2022-09-04T06:42:47.036Z,98821.00
2022-09-04T06:45:22.334Z,98816.00
2022-09-04T06:48:01.548Z,98824.00
2022-09-04T06:50:32.713Z,98826.00
2022-09-04T06:53:08.061Z,98830.00
2022-09-04T06:55:42.654Z,98827.00
2022-09-04T06:58:18.544Z,98836.00
2022-09-04T07:00:49.711Z,98834.00
2022-09-04T07:03:24.642Z,98839.00
2022-09-04T07:05:55.742Z,98854.00
2022-09-04T07:08:31.619Z,98850.00
2022-09-04T07:11:08.529Z,98845.00
2022-09-04T07:13:55.024Z,98857.00
2022-09-04T07:16:39.150Z,98856.00
2022-09-04T07:19:46.965Z,98861.00
2022-09-04T07:22:44.779Z,98865.00
2022-09-04T07:25:14.400Z,98865.00
2022-09-04T07:27:52.779Z,98871.00
2022-09-04T07:30:26.114Z,98867.00
2022-09-04T07:32:56.222Z,98870.00
2022-09-04T07:35:28.178Z,98877.00
2022-09-04T07:37:58.775Z,98877.00
2022-09-04T07:40:27.930Z,98877.00
2022-09-04T07:43:01.887Z,98870.00
2022-09-04T07:45:32.465Z,98878.00
2022-09-04T07:48:16.583Z,98880.00
2022-09-04T07:51:03.744Z,98883.00
2022-09-04T07:53:41.145Z,98887.00
2022-09-04T07:56:14.422Z,98889.00
2022-09-04T07:58:58.623Z,98898.00
2022-09-04T08:01:40.204Z,98892.00
2022-09-04T08:04:38.239Z,98883.00
2022-09-04T08:07:11.247Z,98894.00
2022-09-04T08:10:02.870Z,98888.00
2022-09-04T08:12:47.705Z,98899.00
2022-09-04T08:15:19.961Z,98906.00
2022-09-04T08:18:11.971Z,98913.00
2022-09-04T08:20:43.346Z,98908.00
2022-09-04T08:23:24.617Z,98914.00
2022-09-04T08:25:56.582Z,98917.00
2022-09-04T08:28:46.465Z,98919.00
2022-09-04T08:31:20.829Z,98932.00
2022-09-04T08:34:20.405Z,98929.00
2022-09-04T08:36:50.791Z,98931.00
2022-09-04T08:39:22.154Z,98930.00
2022-09-04T08:42:37.126Z,98915.00
2022-09-04T08:45:42.659Z,98928.00
2022-09-04T08:48:38.814Z,98921.00
2022-09-04T08:51:35.873Z,98925.00
2022-09-04T08:54:18.860Z,98927.00
2022-09-04T08:56:49.089Z,98927.00
2022-09-04T08:59:36.540Z,98929.00
2022-09-04T09:02:24.493Z,98932.00
2022-09-04T09:05:25.884Z,98936.00
2022-09-04T09:08:17.104Z,98934.00
2022-09-04T09:11:13.854Z,98939.00
2022-09-04T09:14:31.874Z,98932.00
2022-09-04T09:17:12.701Z,98931.00
2022-09-04T09:19:47.778Z,98941.00
2022-09-04T09:22:29.818Z,98931.00
2022-09-04T09:25:21.131Z,98927.00
2022-09-04T09:28:48.276Z,98931.00
2022-09-04T09:31:34.647Z,98922.00
2022-09-04T09:34:46.668Z,98922.00
2022-09-04T09:38:04.704Z,98920.00
2022-09-04T09:40:47.497Z,98917.00
2022-09-04T09:43:32.463Z,98920.00
2022-09-04T09:46:25.757Z,98917.00
2022-09-04T09:49:39.407Z,98929.00
2022-09-04T09:52:32.600Z,98925.00
2022-09-04T09:55:22.419Z,98932.00
2022-09-04T09:58:28.929Z,98919.00
2022-09-04T10:01:08.253Z,98919.00
2022-09-04T10:03:56.042Z,98919.00
2022-09-04T10:06:40.442Z,98911.00
2022-09-04T10:09:42.101Z,98912.00
2022-09-04T10:12:51.389Z,98913.00
2022-09-04T10:15:48.261Z,98905.00
2022-09-04T10:18:46.741Z,98907.00
2022-09-04T10:21:37.578Z,98909.00
2022-09-04T10:24:34.559Z,98906.00
2022-09-04T10:27:23.524Z,98898.00
2022-09-04T10:30:07.026Z,98901.00
2022-09-04T10:32:51.721Z,98898.00
2022-09-04T10:35:23.250Z,98892.00
2022-09-04T10:38:12.602Z,98899.00
2022-09-04T10:40:55.275Z,98890.00
2022-09-04T10:44:19.466Z,98894.00
2022-09-04T10:46:55.254Z,98888.00
2022-09-04T10:49:41.861Z,98889.00
2022-09-04T10:52:27.043Z,98886.00
2022-09-04T10:55:28.119Z,98895.00
2022-09-04T10:58:11.232Z,98894.00
2022-09-04T11:00:51.290Z,98892.00
2022-09-04T11:03:29.186Z,98886.00
2022-09-04T11:06:26.008Z,98891.00
2022-09-04T11:09:10.042Z,98888.00
2022-09-04T11:12:10.394Z,98895.00
2022-09-04T11:15:05.226Z,98890.00
2022-09-04T11:17:58.143Z,98882.00
2022-09-04T11:20:59.845Z,98884.00
2022-09-04T11:23:58.731Z,98873.00
2022-09-04T11:27:08.351Z,98873.00
2022-09-04T11:29:44.315Z,98882.00
2022-09-04T11:32:21.402Z,98859.00
2022-09-04T11:35:32.264Z,98870.00
2022-09-04T11:38:03.250Z,98866.00
2022-09-04T11:41:04.132Z,98861.00
2022-09-04T11:44:17.183Z,98870.00
2022-09-04T11:47:01.767Z,98867.00
2022-09-04T11:50:01.215Z,98872.00
2022-09-04T11:52:40.604Z,98872.00
2022-09-04T11:55:33.727Z,98866.00
2022-09-04T11:58:13.821Z,98873.00
2022-09-04T12:00:45.828Z,98873.00
2022-09-04T12:03:53.961Z,98875.00
2022-09-04T12:06:35.162Z,98872.00
2022-09-04T12:09:12.191Z,98876.00
2022-09-04T12:11:55.070Z,98872.00
2022-09-04T12:14:37.255Z,98872.00
2022-09-04T12:17:40.988Z,98876.00
2022-09-04T12:20:57.858Z,98881.00
2022-09-04T12:23:41.384Z,98883.00
2022-09-04T12:26:23.526Z,98894.00
2022-09-04T12:29:20.155Z,98880.00
2022-09-04T12:32:26.707Z,98877.00
2022-09-04T12:35:04.104Z,98871.00
2022-09-04T12:37:47.736Z,98875.00
2022-09-04T12:40:34.635Z,98878.00
2022-09-04T12:43:26.253Z,98884.00
2022-09-04T12:46:00.595Z,98879.00
2022-09-04T12:48:38.815Z,98882.00
2022-09-04T12:51:11.932Z,98872.00
2022-09-04T12:53:52.762Z,98873.00
2022-09-04T12:56:27.915Z,98873.00
2022-09-04T12:59:16.165Z,98883.00
2022-09-04T13:02:00.875Z,98879.00
2022-09-04T13:04:32.550Z,98878.00
2022-09-04T13:07:11.053Z,98856.00
2022-09-04T13:09:53.275Z,98878.00
2022-09-04T13:12:25.741Z,98868.00
2022-09-04T13:15:30.652Z,98879.00
2022-09-04T13:18:33.369Z,98885.00
2022-09-04T13:21:06.554Z,98875.00
2022-09-04T13:23:46.237Z,98881.00
2022-09-04T13:26:29.781Z,98869.00
2022-09-04T13:29:08.513Z,98869.00
2022-09-04T13:31:44.953Z,98874.00
2022-09-04T13:34:17.059Z,98869.00
2022-09-04T13:36:49.710Z,98874.00
2022-09-04T13:39:27.109Z,98869.00
2022-09-04T13:42:11.599Z,98867.00
2022-09-04T13:44:55.475Z,98881.00
2022-09-04T13:47:31.961Z,98874.00
2022-09-04T13:50:08.481Z,98888.00
2022-09-04T13:52:38.175Z,98878.00
2022-09-04T13:55:09.880Z,98885.00
2022-09-04T13:57:40.727Z,98880.00
2022-09-04T14:00:12.122Z,98872.00
2022-09-04T14:02:41.946Z,98871.00
2022-09-04T14:05:11.671Z,98876.00
2022-09-04T14:07:44.887Z,98878.00
2022-09-04T14:10:16.178Z,98874.00
2022-09-04T14:12:53.953Z,98884.00
2022-09-04T14:16:03.657Z,98883.00
2022-09-04T14:18:45.356Z,98885.00
2022-09-04T14:21:17.349Z,98886.00
2022-09-04T14:23:48.081Z,98878.00
2022-09-04T14:26:21.573Z,98876.00
2022-09-04T14:28:52.180Z,98877.00
2022-09-04T14:31:24.279Z,98874.00
2022-09-04T14:33:57.256Z,98882.00
2022-09-04T14:36:35.667Z,98887.00
2022-09-04T14:39:14.811Z,98875.00
2022-09-04T14:41:51.393Z,98880.00
2022-09-04T14:44:27.017Z,98886.00
2022-09-04T14:47:02.233Z,98877.00
2022-09-04T14:49:32.094Z,98877.00
2022-09-04T14:52:03.388Z,98884.00
2022-09-04T14:54:32.395Z,98877.00
2022-09-04T14:57:02.204Z,98856.00
2022-09-04T14:59:33.234Z,98884.00
2022-09-04T15:02:18.422Z,98881.00
2022-09-04T15:04:48.587Z,98879.00
2022-09-04T15:07:30.938Z,98885.00
2022-09-04T15:10:24.559Z,98879.00
2022-09-04T15:13:01.320Z,98881.00
2022-09-04T15:15:31.708Z,98888.00
2022-09-04T15:18:10.672Z,98883.00
2022-09-04T15:20:40.542Z,98885.00
2022-09-04T15:23:13.455Z,98892.00
2022-09-04T15:25:59.478Z,98890.00
2022-09-04T15:28:30.292Z,98886.00
2022-09-04T15:31:05.976Z,98885.00
2022-09-04T15:33:35.837Z,98894.00
2022-09-04T15:36:08.823Z,98890.00
2022-09-04T15:38:37.132Z,98893.00
2022-09-04T15:41:18.260Z,98901.00
2022-09-04T15:43:48.690Z,98880.00
2022-09-04T15:46:22.715Z,98895.00
2022-09-04T15:48:55.281Z,98875.00
2022-09-04T15:51:27.188Z,98899.00
2022-09-04T15:54:13.408Z,98882.00
2022-09-04T15:56:45.373Z,98881.00
2022-09-04T15:59:15.245Z,98882.00
2022-09-04T16:01:47.217Z,98874.00
2022-09-04T16:04:23.358Z,98884.00
2022-09-04T16:06:54.621Z,98880.00
2022-09-04T16:09:26.240Z,98879.00
2022-09-04T16:12:03.612Z,98883.00
2022-09-04T16:14:33.431Z,98876.00
2022-09-04T16:17:02.906Z,98878.00
2022-09-04T16:19:33.887Z,98892.00
2022-09-04T16:22:07.649Z,98883.00
2022-09-04T16:24:42.206Z,98878.00
2022-09-04T16:27:12.340Z,98889.00
2022-09-04T16:29:42.362Z,98886.00
2022-09-04T16:32:12.297Z,98884.00
2022-09-04T16:34:47.723Z,98884.00
2022-09-04T16:37:18.788Z,98890.00
2022-09-04T16:39:56.056Z,98891.00
2022-09-04T16:42:25.362Z,98899.00
2022-09-04T16:44:55.217Z,98894.00
2022-09-04T16:47:25.229Z,98893.00
2022-09-04T16:49:59.673Z,98888.00
2022-09-04T16:52:58.836Z,98889.00
2022-09-04T16:55:44.655Z,98890.00
2022-09-04T16:58:35.418Z,98890.00
2022-09-04T17:01:13.890Z,98895.00
2022-09-04T17:03:47.979Z,98898.00
2022-09-04T17:06:27.769Z,98897.00
2022-09-04T17:09:00.864Z,98895.00
2022-09-04T17:11:32.611Z,98900.00
2022-09-04T17:14:08.335Z,98904.00
2022-09-04T17:16:52.624Z,98901.00
2022-09-04T17:19:21.899Z,98904.00
2022-09-04T17:26:34.643Z,98909.00
2022-09-04T17:29:01.072Z,98908.00
2022-09-04T17:29:08.056Z,98902.00
2022-09-04T17:31:17.431Z,98908.00
2022-09-04T17:40:33.487Z,98910.00
2022-09-04T17:40:50.005Z,98906.00
2022-09-04T17:40:51.768Z,98908.00
2022-09-04T17:42:22.015Z,98907.00
2022-09-04T17:44:53.798Z,98914.00
2022-09-04T17:47:28.526Z,98913.00
2022-09-04T17:49:56.760Z,98912.00
2022-09-04T17:52:27.053Z,98915.00
2022-09-04T17:54:59.886Z,98917.00
2022-09-04T17:57:32.374Z,98919.00
2022-09-04T18:00:03.724Z,98925.00
2022-09-04T18:02:38.943Z,98927.00
2022-09-04T18:05:14.873Z,98929.00
2022-09-04T18:08:07.452Z,98922.00
2022-09-04T18:10:35.526Z,98930.00
2022-09-04T18:13:36.856Z,98931.00
2022-09-04T18:16:34.063Z,98933.00
2022-09-04T18:19:14.768Z,98939.00
2022-09-04T18:21:44.865Z,98944.00
2022-09-04T18:24:13.741Z,98944.00
2022-09-04T18:26:46.191Z,98945.00
2022-09-04T18:32:31.761Z,98945.00
2022-09-04T18:37:09.420Z,98942.00
2022-09-04T18:37:18.590Z,98943.00
2022-09-04T18:38:11.896Z,98952.00
2022-09-04T18:42:07.895Z,98957.00
2022-09-04T18:50:25.371Z,98957.00
2022-09-04T18:50:37.649Z,98960.00
2022-09-04T18:50:44.670Z,98968.00
2022-09-04T18:52:05.379Z,98968.00
2022-09-04T18:54:39.591Z,98969.00
2022-09-04T18:57:25.577Z,98977.00
2022-09-04T19:00:08.078Z,98983.00
2022-09-04T19:02:47.501Z,98981.00
2022-09-04T19:05:21.990Z,98980.00
2022-09-04T19:07:53.875Z,98981.00
2022-09-04T19:10:25.669Z,98991.00
2022-09-04T19:13:05.288Z,99004.00
2022-09-04T19:15:53.876Z,99002.00
2022-09-04T19:18:27.562Z,98995.00
2022-09-04T19:21:15.141Z,98988.00
2022-09-04T19:23:46.268Z,98995.00
2022-09-04T19:26:22.061Z,98996.00
2022-09-04T19:28:53.310Z,98984.00
2022-09-04T19:31:29.960Z,99002.00
2022-09-04T19:33:59.003Z,98989.00
2022-09-04T19:36:32.220Z,98991.00
2022-09-04T19:45:56.649Z,98984.00
2022-09-04T19:45:59.935Z,98989.00
2022-09-04T19:46:03.481Z,98988.00
2022-09-04T19:47:50.734Z,98995.00
2022-09-04T19:53:22.503Z,98988.00
2022-09-04T19:53:39.005Z,98993.00
2022-09-04T19:56:10.762Z,99014.00
2022-09-04T19:58:40.758Z,98995.00
2022-09-04T20:01:15.870Z,99000.00
2022-09-04T20:03:49.539Z,98982.00
2022-09-04T20:06:22.598Z,98993.00
2022-09-04T20:08:57.691Z,99007.00
2022-09-04T20:11:36.062Z,98996.00
2022-09-04T20:14:13.860Z,99001.00
2022-09-04T20:16:51.397Z,98998.00
2022-09-04T20:19:27.692Z,98996.00
2022-09-04T20:21:59.975Z,99001.00
2022-09-04T20:24:34.136Z,98996.00
2022-09-04T20:27:06.517Z,99003.00
2022-09-04T20:29:37.437Z,99003.00
2022-09-04T20:32:10.009Z,98999.00
2022-09-04T20:34:44.037Z,98996.00
2022-09-04T20:37:23.184Z,98996.00
2022-09-04T20:39:58.338Z,99001.00
2022-09-04T20:42:28.918Z,98998.00
2022-09-04T20:47:23.039Z,99005.00
2022-09-04T20:52:42.352Z,98992.00
2022-09-04T20:52:52.611Z,99002.00
2022-09-04T20:53:31.964Z,99002.00
2022-09-04T20:56:21.956Z,98991.00
2022-09-04T21:03:13.286Z,99002.00
2022-09-04T21:03:17.496Z,99002.00
2022-09-04T21:04:51.397Z,99011.00
2022-09-04T21:07:28.107Z,99001.00
2022-09-04T21:10:00.765Z,99023.00
2022-09-04T21:12:34.046Z,99003.00
2022-09-04T21:15:08.159Z,99006.00
2022-09-04T21:18:15.360Z,99015.00
2022-09-04T21:21:16.057Z,99011.00
2022-09-04T21:24:07.935Z,99013.00
2022-09-04T21:27:10.805Z,99012.00
2022-09-04T21:29:57.886Z,99006.00
2022-09-04T21:32:41.566Z,99022.00
2022-09-04T21:35:14.456Z,99027.00
2022-09-04T21:37:47.829Z,99033.00
2022-09-04T21:40:51.830Z,99023.00
2022-09-04T21:43:47.989Z,99034.00
2022-09-04T21:46:30.981Z,99041.00
2022-09-04T21:49:08.392Z,99038.00
2022-09-04T21:51:52.737Z,99033.00
2022-09-04T21:57:08.997Z,99034.00
2022-09-04T22:02:27.186Z,99050.00
2022-09-04T22:02:39.685Z,99048.00
2022-09-04T22:03:45.157Z,99035.00
2022-09-04T22:06:41.054Z,99051.00
2022-09-04T22:13:28.959Z,99048.00
2022-09-04T22:13:37.633Z,99043.00
2022-09-04T22:14:55.766Z,99052.00
2022-09-04T22:17:45.742Z,99044.00
2022-09-04T22:20:34.903Z,99041.00
2022-09-04T22:23:31.464Z,99044.00
2022-09-04T22:26:23.943Z,99043.00
2022-09-04T22:29:40.545Z,99047.00
2022-09-04T22:32:42.153Z,99049.00
2022-09-04T22:35:37.459Z,99047.00
2022-09-04T22:38:27.191Z,99048.00
2022-09-04T22:40:58.879Z,99038.00
2022-09-04T22:43:27.323Z,99042.00
2022-09-04T22:46:13.136Z,99034.00
2022-09-04T22:49:12.594Z,99050.00
2022-09-04T22:52:17.413Z,99041.00
2022-09-04T22:54:56.539Z,99042.00
2022-09-04T22:57:28.210Z,99030.00
2022-09-04T23:00:09.635Z,99037.00
2022-09-04T23:03:08.302Z,99047.00
2022-09-04T23:06:11.334Z,99048.00
2022-09-04T23:13:49.424Z,99040.00
2022-09-04T23:13:50.738Z,99062.00
2022-09-04T23:14:46.350Z,99064.00
2022-09-04T23:17:31.418Z,99060.00
2022-09-04T23:23:00.030Z,99054.00
2022-09-04T23:26:36.797Z,99051.00
2022-09-04T23:26:46.445Z,99052.00
2022-09-04T23:29:32.829Z,99044.00
2022-09-04T23:32:23.972Z,99057.00
2022-09-04T23:35:14.964Z,99060.00
2022-09-04T23:38:00.179Z,99062.00
2022-09-04T23:40:35.055Z,99051.00
2022-09-04T23:43:29.881Z,99066.00
2022-09-04T23:46:34.222Z,99051.00
2022-09-04T23:49:25.075Z,99053.00
2022-09-04T23:51:57.166Z,99051.00
2022-09-04T23:54:49.189Z,99055.00
2022-09-04T23:57:26.299Z,99061.00
2022-09-04T23:59:59.337Z,99050.00
